Terminal Aerodrome Forecast
Issued by NWS

Home | Current Version | Previous Version | Text Only | Print | Product List | Glossary Off
Versions: 1 2 3 4 5 6 7 8 9 10 11 12 13 14

000
FTUS43 KIWX 141138
TAFSBN
TAF
KSBN 141138Z 1412/1512 01007KT P6SM SCT025
     FM141500 06006KT P6SM BKN035
     FM141700 VRB03KT P6SM BKN040
     FM142200 22005KT P6SM SCT040 BKN070
     FM150900 22009KT P6SM -SHSN OVC040=

USA.gov is the U.S. government's official web portal to all federal, state and local government web resources and services.